Time;durP1;ratioP1;P1;durP2;ratioP2;P2;SDS_P1;SDS_P2;PMS_P1;PMS_P2;Temp;Humidity;BMP_temperature;BMP_pressure;BME280_temperature;BME280_humidity;BME280_pressure;Samples;Min_cycle;Max_cycle;Signal;HPM_P1;HPM_P2
2022/09/26 00:00:05;;;;;;;;;;;;;;;;;;351490;28;829;-64
2022/09/26 00:00:15;;;;;;;;;;;;;;;;;;351554;28;935;-64
2022/09/26 00:00:26;;;;;;;;;;;;;;;;;;351518;28;999;-64
2022/09/26 00:00:39;;;;;;;;;;;;;;;;;;351463;28;1035;-64
2022/09/26 00:00:49;;;;;;;;;;;;;;;;;;351526;28;923;-64
2022/09/26 00:01:05;;;;;;;;;;;;;;;;;;351500;28;853;-64
2022/09/26 00:01:19;;;;;;;;;;;;;;;;;;351573;28;876;-64
2022/09/26 00:01:32;;;;;;;;;;;;;;;;;;351526;28;982;-64
2022/09/26 00:01:42;;;;;;;;;;;;;;;;;;351559;28;1024;-65
2022/09/26 00:01:52;;;;;;;;;;;;;;;;;;351573;28;975;-64
2022/09/26 00:02:02;;;;;;;;;;;;;;;;;;351586;28;867;-64
2022/09/26 00:02:12;;;;;;;;;;;;;;;;;;351501;28;943;-65
2022/09/26 00:02:23;;;;;;;;;;;;;;;;;;351556;28;852;-64
2022/09/26 00:02:33;;;;;;;;;;;;;;;;;;351549;28;911;-64
2022/09/26 00:02:43;;;;;;;;;;;;;;;;;;351593;28;903;-64
2022/09/26 00:02:53;;;;;;;;;;;;;;;;;;350237;28;1327;-65
2022/09/26 00:03:04;;;;;;;;;;;;;;;;;;350016;28;1692;-64
2022/09/26 00:03:14;;;;;;;;;;;;;;;;;;350162;28;761;-64
2022/09/26 00:03:24;;;;;;;;;;;;;;;;;;350143;28;979;-64
2022/09/26 00:03:34;;;;;;;;;;;;;;;;;;350103;28;951;-64
2022/09/26 00:03:49;;;;;;;;;;;;;;;;;;350115;28;987;-64
2022/09/26 00:04:04;;;;;;;;;;;;;;;;;;349403;28;1390;-64
2022/09/26 00:04:19;;;;;;;;;;;;;;;;;;350095;28;1058;-64
2022/09/26 00:04:29;;;;;;;;;;;;;;;;;;350138;28;892;-64
2022/09/26 00:04:39;;;;;;;;;;;;;;;;;;350097;28;1007;-65
2022/09/26 00:04:49;;;;;;;;;;;;;;;;;;350223;28;778;-64
2022/09/26 00:05:00;;;;;;;;;;;;;;;;;;350127;28;976;-64
2022/09/26 00:05:10;;;;;;;;;;;;;;;;;;350069;28;915;-65
2022/09/26 00:05:20;;;;;;;;;;;;;;;;;;350119;28;928;-64
2022/09/26 00:05:35;;;;;;;;;;;;;;;;;;350175;28;896;-64
2022/09/26 00:05:45;;;;;;;;;;;;;;;;;;350082;28;1022;-65
2022/09/26 00:05:59;;;;;;;;;;;;;;;;;;350135;28;806;-64
2022/09/26 00:06:09;;;;;;;;;;;;;;;;;;350111;28;983;-64
2022/09/26 00:06:20;;;;;;;;;;;;;;;;;;350069;28;944;-64
2022/09/26 00:06:30;;;;;;;;;;;;;;;;;;349218;28;1747;-64
2022/09/26 00:06:40;;;;;;;;;;;;;;;;;;350151;28;952;-64
2022/09/26 00:06:52;;;;;;;;;;;;;;;;;;350117;28;944;-64
2022/09/26 00:07:02;;;;;;;;;;;;;;;;;;350094;28;1127;-64
2022/09/26 00:07:12;;;;;;;;;;;;;;;;;;350093;28;789;-64
2022/09/26 00:07:22;;;;;;;;;;;;;;;;;;350109;28;1152;-64
2022/09/26 00:07:33;;;;;;;;;;;;;;;;;;350164;28;994;-64
2022/09/26 00:07:43;;;;;;;;;;;;;;;;;;350072;28;967;-64
2022/09/26 00:07:53;;;;;;;;;;;;;;;;;;350108;28;773;-64
2022/09/26 00:08:04;;;;;;;;;;;;;;;;;;350186;28;984;-64
2022/09/26 00:08:15;;;;;;;;;;;;;;;;;;350108;28;913;-64
2022/09/26 00:08:25;;;;;;;;;;;;;;;;;;350119;28;987;-64
2022/09/26 00:08:36;;;;;;;;;;;;;;;;;;350187;28;1122;-64
2022/09/26 00:08:47;;;;;;;;;;;;;;;;;;350073;28;1027;-64
2022/09/26 00:08:57;;;;;;;;;;;;;;;;;;350144;28;995;-64
2022/09/26 00:09:07;;;;;;;;;;;;;;;;;;350156;28;900;-64
2022/09/26 00:09:18;;;;;;;;;;;;;;;;;;350073;28;773;-64
2022/09/26 00:09:29;;;;;;;;;;;;;;;;;;350135;28;939;-64
2022/09/26 00:09:39;;;;;;;;;;;;;;;;;;350204;28;806;-64
2022/09/26 00:09:49;;;;;;;;;;;;;;;;;;350042;28;1325;-65
2022/09/26 00:09:59;;;;;;;;;;;;;;;;;;350157;28;912;-64
2022/09/26 00:10:09;;;;;;;;;;;;;;;;;;350148;28;960;-64
2022/09/26 00:10:20;;;;;;;;;;;;;;;;;;350069;28;908;-64
2022/09/26 00:10:30;;;;;;;;;;;;;;;;;;350145;28;975;-64
2022/09/26 00:10:40;;;;;;;;;;;;;;;;;;350153;28;984;-64
2022/09/26 00:11:00;;;;;;;;;;;;;;;;;;348886;28;1479;-64
2022/09/26 00:11:12;;;;;;;;;;;;;;;;;;350126;28;959;-64
2022/09/26 00:11:24;;;;;;;;;;;;;;;;;;350065;28;928;-64
2022/09/26 00:11:34;;;;;;;;;;;;;;;;;;350150;28;860;-64
2022/09/26 00:11:45;;;;;;;;;;;;;;;;;;350112;28;872;-64
2022/09/26 00:11:55;;;;;;;;;;;;;;;;;;350128;28;924;-64
2022/09/26 00:12:06;;;;;;;;;;;;;;;;;;350072;28;824;-64
2022/09/26 00:12:16;;;;;;;;;;;;;;;;;;350139;28;928;-64
2022/09/26 00:12:26;;;;;;;;;;;;;;;;;;350151;28;975;-64
2022/09/26 00:12:37;;;;;;;;;;;;;;;;;;350082;28;951;-64
2022/09/26 00:12:47;;;;;;;;;;;;;;;;;;350073;28;927;-64
2022/09/26 00:12:57;;;;;;;;;;;;;;;;;;350145;28;936;-64
2022/09/26 00:13:08;;;;;;;;;;;;;;;;;;350134;28;868;-64
2022/09/26 00:13:18;;;;;;;;;;;;;;;;;;350127;28;985;-64
2022/09/26 00:13:29;;;;;;;;;;;;;;;;;;350049;28;852;-64
2022/09/26 00:13:40;;;;;;;;;;;;;;;;;;350171;28;849;-64
2022/09/26 00:13:52;;;;;;;;;;;;;;;;;;350082;28;994;-64
2022/09/26 00:14:05;;;;;;;;;;;;;;;;;;350128;28;988;-64
2022/09/26 00:14:17;;;;;;;;;;;;;;;;;;350145;28;1062;-64
2022/09/26 00:14:28;;;;;;;;;;;;;;;;;;350136;28;1007;-64
2022/09/26 00:14:38;;;;;;;;;;;;;;;;;;350100;28;862;-64
2022/09/26 00:14:48;;;;;;;;;;;;;;;;;;350124;28;800;-64
2022/09/26 00:14:58;;;;;;;;;;;;;;;;;;350078;28;967;-64
2022/09/26 00:15:09;;;;;;;;;;;;;;;;;;350163;28;876;-64
2022/09/26 00:15:19;;;;;;;;;;;;;;;;;;350131;28;1044;-65
2022/09/26 00:15:29;;;;;;;;;;;;;;;;;;350104;28;967;-64
2022/09/26 00:15:40;;;;;;;;;;;;;;;;;;350091;28;994;-64
2022/09/26 00:15:50;;;;;;;;;;;;;;;;;;350136;28;959;-64
2022/09/26 00:16:01;;;;;;;;;;;;;;;;;;350111;28;1025;-64
2022/09/26 00:16:11;;;;;;;;;;;;;;;;;;350115;28;954;-64
2022/09/26 00:16:22;;;;;;;;;;;;;;;;;;350072;28;1103;-64
2022/09/26 00:16:33;;;;;;;;;;;;;;;;;;350131;28;995;-64
2022/09/26 00:16:43;;;;;;;;;;;;;;;;;;350149;28;805;-64
2022/09/26 00:16:53;;;;;;;;;;;;;;;;;;350110;28;873;-64
2022/09/26 00:17:04;;;;;;;;;;;;;;;;;;350068;28;920;-63
2022/09/26 00:17:14;;;;;;;;;;;;;;;;;;350133;28;1014;-64
2022/09/26 00:17:24;;;;;;;;;;;;;;;;;;350052;28;788;-64
2022/09/26 00:17:34;;;;;;;;;;;;;;;;;;350096;28;967;-64
2022/09/26 00:17:44;;;;;;;;;;;;;;;;;;350028;28;1655;-64
2022/09/26 00:17:54;;;;;;;;;;;;;;;;;;350079;28;920;-64
2022/09/26 00:18:05;;;;;;;;;;;;;;;;;;350111;28;912;-64
2022/09/26 00:18:15;;;;;;;;;;;;;;;;;;350060;28;951;-64
2022/09/26 00:18:25;;;;;;;;;;;;;;;;;;350053;28;1910;-64
2022/09/26 00:18:36;;;;;;;;;;;;;;;;;;350148;28;797;-64
2022/09/26 00:18:50;;;;;;;;;;;;;;;;;;350036;28;1330;-64
2022/09/26 00:19:01;;;;;;;;;;;;;;;;;;350082;28;983;-64
2022/09/26 00:19:11;;;;;;;;;;;;;;;;;;350091;28;904;-64
2022/09/26 00:19:21;;;;;;;;;;;;;;;;;;350121;28;909;-64
2022/09/26 00:19:31;;;;;;;;;;;;;;;;;;350182;28;935;-64
2022/09/26 00:19:41;;;;;;;;;;;;;;;;;;350012;28;920;-64
2022/09/26 00:19:52;;;;;;;;;;;;;;;;;;350111;28;936;-64
2022/09/26 00:20:03;;;;;;;;;;;;;;;;;;350127;28;852;-65
2022/09/26 00:20:13;;;;;;;;;;;;;;;;;;350095;28;790;-64
2022/09/26 00:20:23;;;;;;;;;;;;;;;;;;350004;28;1163;-64
2022/09/26 00:20:35;;;;;;;;;;;;;;;;;;350148;28;864;-64
2022/09/26 00:20:45;;;;;;;;;;;;;;;;;;350044;28;944;-64
2022/09/26 00:21:10;;;;;;;;;;;;;;;;;;350026;28;1263;-64
2022/09/26 00:21:21;;;;;;;;;;;;;;;;;;348659;28;1063;-64
2022/09/26 00:21:31;;;;;;;;;;;;;;;;;;348760;28;794;-64
2022/09/26 00:21:41;;;;;;;;;;;;;;;;;;348677;28;928;-64
2022/09/26 00:21:51;;;;;;;;;;;;;;;;;;348684;28;983;-64
2022/09/26 00:22:02;;;;;;;;;;;;;;;;;;348688;28;924;-64
2022/09/26 00:22:12;;;;;;;;;;;;;;;;;;348680;28;1000;-64
2022/09/26 00:22:22;;;;;;;;;;;;;;;;;;348769;28;1154;-64
2022/09/26 00:22:32;;;;;;;;;;;;;;;;;;348764;28;924;-64
2022/09/26 00:22:42;;;;;;;;;;;;;;;;;;348672;28;952;-64
2022/09/26 00:22:52;;;;;;;;;;;;;;;;;;348721;28;928;-64
2022/09/26 00:23:03;;;;;;;;;;;;;;;;;;348714;28;1003;-64
2022/09/26 00:23:14;;;;;;;;;;;;;;;;;;348705;28;787;-64
2022/09/26 00:23:24;;;;;;;;;;;;;;;;;;348751;28;1027;-64
2022/09/26 00:23:34;;;;;;;;;;;;;;;;;;348733;28;1007;-64
2022/09/26 00:23:45;;;;;;;;;;;;;;;;;;348653;28;987;-64
2022/09/26 00:23:56;;;;;;;;;;;;;;;;;;348678;28;1003;-64
2022/09/26 00:24:06;;;;;;;;;;;;;;;;;;348678;28;1050;-64
2022/09/26 00:24:16;;;;;;;;;;;;;;;;;;348736;28;940;-64
2022/09/26 00:24:26;;;;;;;;;;;;;;;;;;348722;28;916;-64
2022/09/26 00:24:37;;;;;;;;;;;;;;;;;;348732;28;1023;-64
2022/09/26 00:24:47;;;;;;;;;;;;;;;;;;348708;28;1005;-65
2022/09/26 00:24:57;;;;;;;;;;;;;;;;;;348805;28;865;-64
2022/09/26 00:25:07;;;;;;;;;;;;;;;;;;348684;28;932;-64
2022/09/26 00:25:18;;;;;;;;;;;;;;;;;;348688;28;916;-64
2022/09/26 00:25:28;;;;;;;;;;;;;;;;;;348741;28;980;-64
2022/09/26 00:25:48;;;;;;;;;;;;;;;;;;349176;28;1394;-64
2022/09/26 00:25:58;;;;;;;;;;;;;;;;;;350018;28;860;-64
2022/09/26 00:26:10;;;;;;;;;;;;;;;;;;350075;28;944;-64
2022/09/26 00:26:21;;;;;;;;;;;;;;;;;;350118;28;1003;-64
2022/09/26 00:26:32;;;;;;;;;;;;;;;;;;350095;28;981;-65
2022/09/26 00:26:42;;;;;;;;;;;;;;;;;;350143;28;797;-64
2022/09/26 00:26:53;;;;;;;;;;;;;;;;;;350096;28;1047;-64
2022/09/26 00:27:03;;;;;;;;;;;;;;;;;;350054;28;1050;-64
2022/09/26 00:27:13;;;;;;;;;;;;;;;;;;350136;28;931;-64
2022/09/26 00:27:23;;;;;;;;;;;;;;;;;;350163;28;837;-65
2022/09/26 00:27:33;;;;;;;;;;;;;;;;;;350132;28;989;-64
2022/09/26 00:27:44;;;;;;;;;;;;;;;;;;350153;28;781;-64
2022/09/26 00:27:54;;;;;;;;;;;;;;;;;;350120;28;979;-65
2022/09/26 00:28:04;;;;;;;;;;;;;;;;;;350013;28;904;-64
2022/09/26 00:28:15;;;;;;;;;;;;;;;;;;350130;28;991;-64
2022/09/26 00:28:25;;;;;;;;;;;;;;;;;;350148;28;784;-64
2022/09/26 00:28:36;;;;;;;;;;;;;;;;;;350113;28;920;-64
2022/09/26 00:28:47;;;;;;;;;;;;;;;;;;350100;28;813;-64
2022/09/26 00:28:57;;;;;;;;;;;;;;;;;;350085;28;1111;-65
2022/09/26 00:29:09;;;;;;;;;;;;;;;;;;350106;28;995;-64
2022/09/26 00:29:19;;;;;;;;;;;;;;;;;;350144;28;1192;-64
2022/09/26 00:29:29;;;;;;;;;;;;;;;;;;350102;28;855;-64
2022/09/26 00:29:40;;;;;;;;;;;;;;;;;;350093;28;1042;-65
2022/09/26 00:29:50;;;;;;;;;;;;;;;;;;350087;28;909;-65
2022/09/26 00:30:00;;;;;;;;;;;;;;;;;;350057;28;813;-64
2022/09/26 00:30:11;;;;;;;;;;;;;;;;;;348844;28;1747;-64
2022/09/26 00:30:21;;;;;;;;;;;;;;;;;;350125;28;801;-64
2022/09/26 00:30:31;;;;;;;;;;;;;;;;;;350055;28;983;-65
2022/09/26 00:30:43;;;;;;;;;;;;;;;;;;350175;28;842;-64
2022/09/26 00:30:53;;;;;;;;;;;;;;;;;;350143;28;884;-65
2022/09/26 00:31:08;;;;;;;;;;;;;;;;;;350156;28;959;-64
2022/09/26 00:31:23;;;;;;;;;;;;;;;;;;350147;28;833;-65
2022/09/26 00:31:35;;;;;;;;;;;;;;;;;;350153;28;920;-64
2022/09/26 00:31:47;;;;;;;;;;;;;;;;;;350091;28;944;-64
2022/09/26 00:31:58;;;;;;;;;;;;;;;;;;350094;28;968;-64
2022/09/26 00:32:08;;;;;;;;;;;;;;;;;;350010;28;956;-65
2022/09/26 00:32:18;;;;;;;;;;;;;;;;;;350084;28;956;-65
2022/09/26 00:32:28;;;;;;;;;;;;;;;;;;350120;28;845;-64
2022/09/26 00:32:38;;;;;;;;;;;;;;;;;;350121;28;928;-64
2022/09/26 00:32:49;;;;;;;;;;;;;;;;;;350129;28;956;-64
2022/09/26 00:32:59;;;;;;;;;;;;;;;;;;350053;28;775;-64
2022/09/26 00:33:10;;;;;;;;;;;;;;;;;;350071;28;943;-65
2022/09/26 00:33:20;;;;;;;;;;;;;;;;;;350109;28;920;-64
2022/09/26 00:33:31;;;;;;;;;;;;;;;;;;350125;28;936;-64
2022/09/26 00:33:41;;;;;;;;;;;;;;;;;;350088;28;1011;-64
2022/09/26 00:33:52;;;;;;;;;;;;;;;;;;350073;28;1002;-64
2022/09/26 00:34:03;;;;;;;;;;;;;;;;;;350131;28;956;-64
2022/09/26 00:34:15;;;;;;;;;;;;;;;;;;350069;28;991;-64
2022/09/26 00:34:25;;;;;;;;;;;;;;;;;;350144;28;852;-64
2022/09/26 00:34:35;;;;;;;;;;;;;;;;;;350095;28;889;-64
2022/09/26 00:34:45;;;;;;;;;;;;;;;;;;350137;28;864;-64
2022/09/26 00:34:56;;;;;;;;;;;;;;;;;;350096;28;928;-64
2022/09/26 00:35:06;;;;;;;;;;;;;;;;;;350090;28;1003;-64
2022/09/26 00:35:16;;;;;;;;;;;;;;;;;;350066;28;979;-64
2022/09/26 00:35:26;;;;;;;;;;;;;;;;;;350068;28;935;-64
2022/09/26 00:35:37;;;;;;;;;;;;;;;;;;350077;28;916;-65
2022/09/26 00:35:48;;;;;;;;;;;;;;;;;;350120;28;944;-64
2022/09/26 00:35:59;;;;;;;;;;;;;;;;;;350150;28;912;-64
2022/09/26 00:36:09;;;;;;;;;;;;;;;;;;350096;28;924;-64
2022/09/26 00:36:20;;;;;;;;;;;;;;;;;;349944;28;1083;-64
2022/09/26 00:36:31;;;;;;;;;;;;;;;;;;350119;28;778;-64
2022/09/26 00:36:41;;;;;;;;;;;;;;;;;;350152;28;836;-64
2022/09/26 00:36:51;;;;;;;;;;;;;;;;;;350117;28;940;-64
2022/09/26 00:37:01;;;;;;;;;;;;;;;;;;350056;28;1047;-64
2022/09/26 00:37:11;;;;;;;;;;;;;;;;;;350086;28;916;-64
2022/09/26 00:37:22;;;;;;;;;;;;;;;;;;349353;28;1386;-64
2022/09/26 00:37:32;;;;;;;;;;;;;;;;;;349516;28;1573;-64
2022/09/26 00:37:42;;;;;;;;;;;;;;;;;;350087;28;928;-64
2022/09/26 00:37:52;;;;;;;;;;;;;;;;;;350130;28;838;-64
2022/09/26 00:38:04;;;;;;;;;;;;;;;;;;350055;28;948;-64
2022/09/26 00:38:14;;;;;;;;;;;;;;;;;;350042;28;971;-64
2022/09/26 00:38:24;;;;;;;;;;;;;;;;;;349950;28;1960;-64
2022/09/26 00:38:35;;;;;;;;;;;;;;;;;;350119;28;1650;-64
2022/09/26 00:38:45;;;;;;;;;;;;;;;;;;350055;28;959;-65
2022/09/26 00:38:55;;;;;;;;;;;;;;;;;;350055;28;1548;-64
2022/09/26 00:39:07;;;;;;;;;;;;;;;;;;350082;28;1081;-64
2022/09/26 00:39:17;;;;;;;;;;;;;;;;;;350087;28;1038;-64
2022/09/26 00:39:28;;;;;;;;;;;;;;;;;;350060;28;837;-64
2022/09/26 00:39:38;;;;;;;;;;;;;;;;;;350095;28;995;-64
2022/09/26 00:39:48;;;;;;;;;;;;;;;;;;350120;28;1027;-64
2022/09/26 00:39:58;;;;;;;;;;;;;;;;;;350061;28;1250;-64
2022/09/26 00:40:08;;;;;;;;;;;;;;;;;;350118;28;896;-64
2022/09/26 00:40:19;;;;;;;;;;;;;;;;;;350083;28;983;-64
2022/09/26 00:40:29;;;;;;;;;;;;;;;;;;350044;28;940;-65
2022/09/26 00:40:40;;;;;;;;;;;;;;;;;;350111;28;932;-64
2022/09/26 00:40:50;;;;;;;;;;;;;;;;;;350093;28;924;-64
2022/09/26 00:41:00;;;;;;;;;;;;;;;;;;350104;28;1023;-65
2022/09/26 00:41:11;;;;;;;;;;;;;;;;;;350110;28;904;-64
2022/09/26 00:41:22;;;;;;;;;;;;;;;;;;350100;28;800;-64
2022/09/26 00:41:33;;;;;;;;;;;;;;;;;;350053;28;963;-64
2022/09/26 00:41:43;;;;;;;;;;;;;;;;;;350063;28;928;-64
2022/09/26 00:41:53;;;;;;;;;;;;;;;;;;350075;28;952;-64
2022/09/26 00:42:03;;;;;;;;;;;;;;;;;;350109;28;971;-64
2022/09/26 00:42:14;;;;;;;;;;;;;;;;;;350096;28;967;-64
2022/09/26 00:42:24;;;;;;;;;;;;;;;;;;350023;28;956;-65
2022/09/26 00:42:34;;;;;;;;;;;;;;;;;;350022;28;1008;-64
2022/09/26 00:42:45;;;;;;;;;;;;;;;;;;350102;28;889;-64
2022/09/26 00:42:56;;;;;;;;;;;;;;;;;;350086;28;1025;-65
2022/09/26 00:43:23;;;;;;;;;;;;;;;;;;350090;28;952;-65
2022/09/26 00:43:34;;;;;;;;;;;;;;;;;;350115;28;872;-65
2022/09/26 00:43:44;;;;;;;;;;;;;;;;;;350106;28;896;-64
2022/09/26 00:43:55;;;;;;;;;;;;;;;;;;350127;28;817;-64
2022/09/26 00:44:24;;;;;;;;;;;;;;;;;;350051;28;916;-64
2022/09/26 00:44:43;;;;;;;;;;;;;;;;;;350096;28;859;-65
2022/09/26 00:44:54;;;;;;;;;;;;;;;;;;350066;28;896;-64
2022/09/26 00:45:04;;;;;;;;;;;;;;;;;;350105;28;926;-64
2022/09/26 00:45:14;;;;;;;;;;;;;;;;;;350078;28;995;-65
2022/09/26 00:45:29;;;;;;;;;;;;;;;;;;350086;28;1026;-64
2022/09/26 00:45:39;;;;;;;;;;;;;;;;;;350045;28;932;-64
2022/09/26 00:45:49;;;;;;;;;;;;;;;;;;350108;28;778;-63
2022/09/26 00:46:15;;;;;;;;;;;;;;;;;;350099;28;967;-64
2022/09/26 00:46:41;;;;;;;;;;;;;;;;;;350022;28;987;-65
2022/09/26 00:46:51;;;;;;;;;;;;;;;;;;350122;28;816;-64
2022/09/26 00:47:02;;;;;;;;;;;;;;;;;;350118;28;964;-64
2022/09/26 00:47:20;;;;;;;;;;;;;;;;;;350045;28;797;-65
2022/09/26 00:47:30;;;;;;;;;;;;;;;;;;350082;28;900;-64
2022/09/26 00:47:43;;;;;;;;;;;;;;;;;;350051;28;1086;-64
2022/09/26 00:48:02;;;;;;;;;;;;;;;;;;350081;28;940;-64
2022/09/26 00:48:13;;;;;;;;;;;;;;;;;;350077;28;908;-64
2022/09/26 00:48:23;;;;;;;;;;;;;;;;;;350060;28;932;-65
2022/09/26 00:48:35;;;;;;;;;;;;;;;;;;350033;28;900;-64
2022/09/26 00:48:48;;;;;;;;;;;;;;;;;;350056;28;1030;-64
2022/09/26 00:49:04;;;;;;;;;;;;;;;;;;350065;28;849;-64
2022/09/26 00:49:28;;;;;;;;;;;;;;;;;;350077;28;899;-65
2022/09/26 00:49:41;;;;;;;;;;;;;;;;;;350041;28;915;-64
2022/09/26 00:49:55;;;;;;;;;;;;;;;;;;350039;28;857;-64
2022/09/26 00:50:15;;;;;;;;;;;;;;;;;;350070;28;919;-64
2022/09/26 00:50:31;;;;;;;;;;;;;;;;;;350071;28;928;-64
2022/09/26 00:50:41;;;;;;;;;;;;;;;;;;350060;28;991;-64
2022/09/26 00:50:51;;;;;;;;;;;;;;;;;;350038;28;820;-64
2022/09/26 00:51:03;;;;;;;;;;;;;;;;;;350033;28;1015;-64
2022/09/26 00:51:13;;;;;;;;;;;;;;;;;;350066;28;999;-64
2022/09/26 00:51:23;;;;;;;;;;;;;;;;;;350052;28;948;-64
2022/09/26 00:51:37;;;;;;;;;;;;;;;;;;350096;28;976;-64
2022/09/26 00:51:51;;;;;;;;;;;;;;;;;;350080;28;991;-64
2022/09/26 00:52:10;;;;;;;;;;;;;;;;;;350102;28;995;-64
2022/09/26 00:52:22;;;;;;;;;;;;;;;;;;350026;28;968;-64
2022/09/26 00:52:35;;;;;;;;;;;;;;;;;;350045;28;1094;-64
2022/09/26 00:52:48;;;;;;;;;;;;;;;;;;350092;28;920;-64
2022/09/26 00:53:01;;;;;;;;;;;;;;;;;;350102;28;920;-64
2022/09/26 00:53:15;;;;;;;;;;;;;;;;;;350081;28;959;-64
2022/09/26 00:53:30;;;;;;;;;;;;;;;;;;350090;28;841;-64
2022/09/26 00:53:42;;;;;;;;;;;;;;;;;;349152;28;1842;-64
2022/09/26 00:53:53;;;;;;;;;;;;;;;;;;348509;28;991;-64
2022/09/26 00:54:05;;;;;;;;;;;;;;;;;;348491;28;1003;-64
2022/09/26 00:54:16;;;;;;;;;;;;;;;;;;348706;28;1027;-64
2022/09/26 00:54:28;;;;;;;;;;;;;;;;;;348633;28;943;-64
2022/09/26 00:54:41;;;;;;;;;;;;;;;;;;348679;28;857;-64
2022/09/26 00:54:53;;;;;;;;;;;;;;;;;;348719;28;1011;-64
2022/09/26 00:55:05;;;;;;;;;;;;;;;;;;348628;28;1004;-63
2022/09/26 00:55:17;;;;;;;;;;;;;;;;;;348711;28;979;-64
2022/09/26 00:55:31;;;;;;;;;;;;;;;;;;348747;28;926;-64
2022/09/26 00:55:44;;;;;;;;;;;;;;;;;;348666;28;805;-64
2022/09/26 00:55:59;;;;;;;;;;;;;;;;;;348672;28;1015;-64
2022/09/26 00:56:17;;;;;;;;;;;;;;;;;;348728;28;940;-64
2022/09/26 00:56:34;;;;;;;;;;;;;;;;;;348692;28;935;-64
2022/09/26 00:56:46;;;;;;;;;;;;;;;;;;348670;28;936;-64
2022/09/26 00:56:59;;;;;;;;;;;;;;;;;;348714;28;956;-64
2022/09/26 00:57:11;;;;;;;;;;;;;;;;;;348610;28;924;-64
2022/09/26 00:57:25;;;;;;;;;;;;;;;;;;348710;28;1086;-64
2022/09/26 00:57:40;;;;;;;;;;;;;;;;;;348724;28;983;-64
2022/09/26 00:57:53;;;;;;;;;;;;;;;;;;348629;28;945;-64
2022/09/26 00:58:07;;;;;;;;;;;;;;;;;;348705;28;939;-64
2022/09/26 00:58:21;;;;;;;;;;;;;;;;;;348658;28;928;-64
2022/09/26 00:58:52;;;;;;;;;;;;;;;;;;348654;28;1906;-64
2022/09/26 00:59:18;;;;;;;;;;;;;;;;;;348741;28;943;-64
2022/09/26 00:59:34;;;;;;;;;;;;;;;;;;348654;28;1019;-64
2022/09/26 00:59:48;;;;;;;;;;;;;;;;;;348673;28;1034;-64
2022/09/26 01:00:00;;;;;;;;;;;;;;;;;;348677;28;864;-64
2022/09/26 01:00:13;;;;;;;;;;;;;;;;;;348699;28;873;-64
2022/09/26 01:00:24;;;;;;;;;;;;;;;;;;348673;28;1011;-64
2022/09/26 01:00:34;;;;;;;;;;;;;;;;;;348738;28;860;-64
2022/09/26 01:00:45;;;;;;;;;;;;;;;;;;348653;28;999;-64
2022/09/26 01:00:58;;;;;;;;;;;;;;;;;;348662;28;940;-65
2022/09/26 01:01:08;;;;;;;;;;;;;;;;;;348742;28;798;-64
2022/09/26 01:01:18;;;;;;;;;;;;;;;;;;348638;28;916;-64
2022/09/26 01:01:29;;;;;;;;;;;;;;;;;;348659;28;1019;-64
2022/09/26 01:01:39;;;;;;;;;;;;;;;;;;348696;28;936;-64
2022/09/26 01:01:52;;;;;;;;;;;;;;;;;;348716;28;979;-64
2022/09/26 01:02:03;;;;;;;;;;;;;;;;;;348661;28;885;-64
2022/09/26 01:02:14;;;;;;;;;;;;;;;;;;348740;28;943;-64
2022/09/26 01:02:26;;;;;;;;;;;;;;;;;;348687;28;1156;-64
2022/09/26 01:02:36;;;;;;;;;;;;;;;;;;348676;28;960;-64
2022/09/26 01:02:47;;;;;;;;;;;;;;;;;;348890;28;1297;-64
2022/09/26 01:02:57;;;;;;;;;;;;;;;;;;350055;28;940;-64
2022/09/26 01:03:07;;;;;;;;;;;;;;;;;;350073;28;915;-64
2022/09/26 01:03:19;;;;;;;;;;;;;;;;;;350009;28;969;-64
2022/09/26 01:03:30;;;;;;;;;;;;;;;;;;350003;28;963;-64
2022/09/26 01:03:41;;;;;;;;;;;;;;;;;;350073;28;770;-64
2022/09/26 01:03:51;;;;;;;;;;;;;;;;;;348951;28;1386;-64
2022/09/26 01:04:03;;;;;;;;;;;;;;;;;;350025;28;940;-64
2022/09/26 01:04:13;;;;;;;;;;;;;;;;;;350055;28;948;-64
2022/09/26 01:04:27;;;;;;;;;;;;;;;;;;350009;28;1010;-64
2022/09/26 01:04:39;;;;;;;;;;;;;;;;;;350031;28;940;-64
2022/09/26 01:04:49;;;;;;;;;;;;;;;;;;350009;28;909;-64
2022/09/26 01:05:00;;;;;;;;;;;;;;;;;;350057;28;964;-64
2022/09/26 01:05:13;;;;;;;;;;;;;;;;;;350054;28;988;-64
2022/09/26 01:05:23;;;;;;;;;;;;;;;;;;350066;28;904;-64
2022/09/26 01:05:35;;;;;;;;;;;;;;;;;;349974;28;919;-64
2022/09/26 01:05:46;;;;;;;;;;;;;;;;;;350026;28;936;-64
2022/09/26 01:05:57;;;;;;;;;;;;;;;;;;350032;28;1019;-64
2022/09/26 01:06:08;;;;;;;;;;;;;;;;;;350020;28;1040;-64
2022/09/26 01:06:19;;;;;;;;;;;;;;;;;;349998;28;952;-64
2022/09/26 01:06:29;;;;;;;;;;;;;;;;;;350091;28;781;-64
2022/09/26 01:06:40;;;;;;;;;;;;;;;;;;350072;28;1019;-64
2022/09/26 01:06:50;;;;;;;;;;;;;;;;;;350087;28;954;-64
2022/09/26 01:07:05;;;;;;;;;;;;;;;;;;350070;28;750;-64
2022/09/26 01:07:19;;;;;;;;;;;;;;;;;;350027;28;1080;-64
2022/09/26 01:07:30;;;;;;;;;;;;;;;;;;350052;28;975;-64
2022/09/26 01:07:40;;;;;;;;;;;;;;;;;;350087;28;832;-64
2022/09/26 01:07:51;;;;;;;;;;;;;;;;;;350086;28;952;-64
2022/09/26 01:08:02;;;;;;;;;;;;;;;;;;349979;28;936;-64
2022/09/26 01:08:14;;;;;;;;;;;;;;;;;;350072;28;837;-64
2022/09/26 01:08:30;;;;;;;;;;;;;;;;;;350064;28;986;-64
2022/09/26 01:08:44;;;;;;;;;;;;;;;;;;350088;28;998;-64
2022/09/26 01:09:07;;;;;;;;;;;;;;;;;;350047;28;1026;-64
2022/09/26 01:09:18;;;;;;;;;;;;;;;;;;350027;28;1027;-64
2022/09/26 01:09:29;;;;;;;;;;;;;;;;;;350015;28;912;-64
2022/09/26 01:09:40;;;;;;;;;;;;;;;;;;349951;28;1016;-64
2022/09/26 01:09:51;;;;;;;;;;;;;;;;;;350052;28;1062;-64
2022/09/26 01:10:03;;;;;;;;;;;;;;;;;;350038;28;914;-64
2022/09/26 01:10:14;;;;;;;;;;;;;;;;;;349920;28;1013;-64
2022/09/26 01:10:25;;;;;;;;;;;;;;;;;;350091;28;869;-64
2022/09/26 01:10:36;;;;;;;;;;;;;;;;;;350034;28;967;-64
2022/09/26 01:10:46;;;;;;;;;;;;;;;;;;350101;28;915;-64
2022/09/26 01:10:57;;;;;;;;;;;;;;;;;;349301;28;1371;-64
2022/09/26 01:11:08;;;;;;;;;;;;;;;;;;349972;28;1108;-64
2022/09/26 01:11:18;;;;;;;;;;;;;;;;;;350046;28;943;-64
2022/09/26 01:11:30;;;;;;;;;;;;;;;;;;350031;28;1060;-64
2022/09/26 01:11:41;;;;;;;;;;;;;;;;;;350002;28;967;-64
2022/09/26 01:11:52;;;;;;;;;;;;;;;;;;350057;28;911;-64
2022/09/26 01:12:03;;;;;;;;;;;;;;;;;;349992;28;1003;-64
2022/09/26 01:12:14;;;;;;;;;;;;;;;;;;350013;28;994;-64
2022/09/26 01:12:24;;;;;;;;;;;;;;;;;;350040;28;948;-64
2022/09/26 01:12:36;;;;;;;;;;;;;;;;;;350132;28;915;-63
2022/09/26 01:12:46;;;;;;;;;;;;;;;;;;350033;28;927;-64
2022/09/26 01:12:58;;;;;;;;;;;;;;;;;;350074;28;795;-64
2022/09/26 01:13:09;;;;;;;;;;;;;;;;;;350053;28;856;-64
2022/09/26 01:13:20;;;;;;;;;;;;;;;;;;350068;28;1107;-64
2022/09/26 01:13:32;;;;;;;;;;;;;;;;;;350024;28;959;-64
2022/09/26 01:13:43;;;;;;;;;;;;;;;;;;350048;28;1010;-64
2022/09/26 01:13:53;;;;;;;;;;;;;;;;;;350015;28;912;-64
2022/09/26 01:14:04;;;;;;;;;;;;;;;;;;349987;28;947;-64
2022/09/26 01:14:14;;;;;;;;;;;;;;;;;;350071;28;975;-64
2022/09/26 01:14:25;;;;;;;;;;;;;;;;;;350072;28;990;-64
2022/09/26 01:14:36;;;;;;;;;;;;;;;;;;350038;28;974;-64
2022/09/26 01:14:49;;;;;;;;;;;;;;;;;;350066;28;976;-64
2022/09/26 01:15:00;;;;;;;;;;;;;;;;;;348767;28;1399;-64
2022/09/26 01:15:10;;;;;;;;;;;;;;;;;;349480;28;1755;-64
2022/09/26 01:15:20;;;;;;;;;;;;;;;;;;348850;28;1688;-64
2022/09/26 01:15:30;;;;;;;;;;;;;;;;;;350075;28;920;-64
2022/09/26 01:15:41;;;;;;;;;;;;;;;;;;350057;28;853;-64
2022/09/26 01:15:51;;;;;;;;;;;;;;;;;;350026;28;853;-64
2022/09/26 01:16:01;;;;;;;;;;;;;;;;;;349978;28;923;-64
2022/09/26 01:16:12;;;;;;;;;;;;;;;;;;350024;28;928;-64
2022/09/26 01:16:22;;;;;;;;;;;;;;;;;;350048;28;939;-64
2022/09/26 01:16:33;;;;;;;;;;;;;;;;;;350063;28;1019;-64
2022/09/26 01:16:45;;;;;;;;;;;;;;;;;;350027;28;951;-64
2022/09/26 01:16:55;;;;;;;;;;;;;;;;;;350060;28;998;-64
2022/09/26 01:17:06;;;;;;;;;;;;;;;;;;350079;28;1007;-64
2022/09/26 01:17:16;;;;;;;;;;;;;;;;;;350057;28;935;-64
2022/09/26 01:17:26;;;;;;;;;;;;;;;;;;349999;28;927;-64
2022/09/26 01:17:39;;;;;;;;;;;;;;;;;;350080;28;936;-64
2022/09/26 01:17:49;;;;;;;;;;;;;;;;;;350008;28;943;-64
2022/09/26 01:17:59;;;;;;;;;;;;;;;;;;350005;28;916;-64
2022/09/26 01:18:10;;;;;;;;;;;;;;;;;;350008;28;864;-64
2022/09/26 01:18:20;;;;;;;;;;;;;;;;;;350056;28;920;-64
2022/09/26 01:18:30;;;;;;;;;;;;;;;;;;349969;28;1973;-64
2022/09/26 01:18:41;;;;;;;;;;;;;;;;;;350068;28;928;-64
2022/09/26 01:18:51;;;;;;;;;;;;;;;;;;349971;28;1431;-64
2022/09/26 01:19:04;;;;;;;;;;;;;;;;;;350060;28;892;-64
2022/09/26 01:19:23;;;;;;;;;;;;;;;;;;349987;28;997;-64
2022/09/26 01:20:01;;;;;;;;;;;;;;;;;;350037;28;987;-64
2022/09/26 01:20:19;;;;;;;;;;;;;;;;;;349994;28;994;-64
2022/09/26 01:20:50;;;;;;;;;;;;;;;;;;350092;28;1002;-64
2022/09/26 01:21:00;;;;;;;;;;;;;;;;;;350190;28;1385;-64
2022/09/26 01:21:11;;;;;;;;;;;;;;;;;;351371;28;915;-64
2022/09/26 01:21:27;;;;;;;;;;;;;;;;;;349419;28;1366;-64
2022/09/26 01:21:55;;;;;;;;;;;;;;;;;;348733;28;790;-64
2022/09/26 01:22:14;;;;;;;;;;;;;;;;;;348609;28;783;-65
2022/09/26 01:22:40;;;;;;;;;;;;;;;;;;348656;28;916;-64
2022/09/26 01:23:09;;;;;;;;;;;;;;;;;;348620;28;977;-64
2022/09/26 01:23:19;;;;;;;;;;;;;;;;;;348233;28;1430;-64
2022/09/26 01:23:41;;;;;;;;;;;;;;;;;;349980;28;967;-64
2022/09/26 01:23:51;;;;;;;;;;;;;;;;;;350034;28;995;-64
2022/09/26 01:24:01;;;;;;;;;;;;;;;;;;350075;28;920;-64
2022/09/26 01:24:29;;;;;;;;;;;;;;;;;;350023;28;932;-64
2022/09/26 01:24:42;;;;;;;;;;;;;;;;;;350042;28;979;-64
2022/09/26 01:25:17;;;;;;;;;;;;;;;;;;350061;28;951;-64